createdAt,value
2022-10-30T00:00:44.750Z,23.40
2022-10-30T00:03:14.076Z,23.40
2022-10-30T00:05:44.288Z,23.40
2022-10-30T00:08:13.347Z,23.40
2022-10-30T00:10:42.071Z,23.40
2022-10-30T00:13:10.793Z,23.30
2022-10-30T00:15:40.294Z,23.30
2022-10-30T00:18:08.437Z,23.30
2022-10-30T00:20:38.032Z,23.30
2022-10-30T00:23:06.812Z,23.30
2022-10-30T00:25:36.315Z,23.30
2022-10-30T00:28:04.643Z,23.30
2022-10-30T00:30:32.850Z,23.30
2022-10-30T00:33:02.424Z,23.20
2022-10-30T00:35:30.610Z,23.20
2022-10-30T00:37:59.116Z,23.30
2022-10-30T00:40:27.476Z,23.30
2022-10-30T00:42:55.558Z,23.20
2022-10-30T00:45:23.733Z,23.20
2022-10-30T00:47:56.073Z,23.20
2022-10-30T00:50:28.592Z,23.20
2022-10-30T00:53:01.762Z,23.20
2022-10-30T00:55:33.887Z,23.20
2022-10-30T00:58:04.703Z,23.10
2022-10-30T01:00:32.969Z,23.20
2022-10-30T01:03:01.437Z,23.20
2022-10-30T01:05:35.376Z,23.10
2022-10-30T01:08:03.537Z,23.10
2022-10-30T01:10:31.725Z,23.10
2022-10-30T01:13:00.918Z,23.10
2022-10-30T01:15:34.460Z,23.10
2022-10-30T01:18:21.583Z,23.10
2022-10-30T01:21:05.021Z,23.10
2022-10-30T01:23:45.938Z,23.10
2022-10-30T01:26:20.984Z,23.10
2022-10-30T01:29:04.333Z,23.10
2022-10-30T01:31:46.731Z,23.00
2022-10-30T01:34:21.644Z,23.00
2022-10-30T01:36:58.684Z,23.00
2022-10-30T01:39:28.610Z,23.00
2022-10-30T01:41:56.488Z,22.90
2022-10-30T01:44:28.580Z,22.90
2022-10-30T01:47:06.827Z,22.90
2022-10-30T01:49:56.577Z,22.90
2022-10-30T01:52:35.258Z,22.90
2022-10-30T01:55:10.443Z,22.80
2022-10-30T01:57:42.327Z,22.80
2022-10-30T02:00:12.638Z,22.80
2022-10-30T02:02:41.741Z,22.80
2022-10-30T02:05:14.494Z,22.70
2022-10-30T02:07:44.007Z,22.80
2022-10-30T02:10:13.406Z,22.70
2022-10-30T02:12:42.339Z,22.70
2022-10-30T02:15:12.257Z,22.80
2022-10-30T02:17:40.772Z,22.70
2022-10-30T02:20:09.843Z,22.70
2022-10-30T02:22:39.532Z,22.70
2022-10-30T02:25:08.387Z,22.70
2022-10-30T02:27:36.454Z,22.70
2022-10-30T02:30:06.084Z,22.70
2022-10-30T02:32:34.229Z,22.60
2022-10-30T02:35:02.318Z,22.60
2022-10-30T02:37:32.266Z,22.60
2022-10-30T02:40:01.508Z,22.60
2022-10-30T02:42:29.795Z,22.60
2022-10-30T02:44:57.859Z,22.60
2022-10-30T02:47:25.992Z,22.60
2022-10-30T02:49:54.082Z,22.60
2022-10-30T02:52:22.222Z,22.60
2022-10-30T02:54:50.330Z,22.50
2022-10-30T02:57:19.804Z,22.50
2022-10-30T02:59:47.847Z,22.50
2022-10-30T03:02:16.263Z,22.50
2022-10-30T03:04:44.419Z,22.50
2022-10-30T03:07:12.982Z,22.40
2022-10-30T03:09:41.016Z,22.40
2022-10-30T03:12:09.387Z,22.40
2022-10-30T03:14:38.871Z,22.40
2022-10-30T03:17:07.099Z,22.40
2022-10-30T03:19:35.663Z,22.40
2022-10-30T03:22:03.875Z,22.40
2022-10-30T03:24:31.987Z,22.30
2022-10-30T03:27:00.088Z,22.30
2022-10-30T03:29:28.203Z,22.30
2022-10-30T03:31:57.807Z,22.30
2022-10-30T03:34:26.051Z,22.30
2022-10-30T03:36:54.191Z,22.20
2022-10-30T03:39:22.262Z,22.30
2022-10-30T03:41:50.560Z,22.20
2022-10-30T03:44:18.705Z,22.20
2022-10-30T03:46:46.808Z,22.20
2022-10-30T03:49:16.435Z,22.20
2022-10-30T03:51:44.526Z,22.20
2022-10-30T03:54:12.616Z,22.10
2022-10-30T03:56:40.678Z,22.10
2022-10-30T03:59:08.731Z,22.10
2022-10-30T04:01:37.086Z,22.10
2022-10-30T04:04:05.283Z,22.10
2022-10-30T04:06:34.755Z,22.10
2022-10-30T04:09:02.835Z,22.10
2022-10-30T04:11:31.004Z,22.10
2022-10-30T04:13:59.157Z,22.10
2022-10-30T04:16:27.208Z,22.10
2022-10-30T04:18:55.417Z,22.00
2022-10-30T04:21:23.483Z,22.00
2022-10-30T04:23:53.990Z,22.00
2022-10-30T04:26:22.137Z,22.00
2022-10-30T04:28:50.203Z,22.00
2022-10-30T04:31:18.308Z,22.00
2022-10-30T04:33:46.582Z,21.90
2022-10-30T04:36:14.649Z,21.90
2022-10-30T04:38:42.735Z,21.90
2022-10-30T04:41:12.170Z,21.90
2022-10-30T04:43:40.299Z,21.80
2022-10-30T04:46:08.418Z,21.80
2022-10-30T04:48:37.222Z,21.80
2022-10-30T04:51:05.595Z,21.80
2022-10-30T04:53:33.640Z,21.80
2022-10-30T04:56:01.760Z,21.80
2022-10-30T04:58:31.332Z,21.80
2022-10-30T05:01:03.383Z,21.70
2022-10-30T05:03:31.805Z,21.70
2022-10-30T05:06:02.620Z,21.70
2022-10-30T05:08:31.262Z,21.70
2022-10-30T05:10:59.669Z,21.70
2022-10-30T05:13:27.760Z,21.60
2022-10-30T05:15:57.265Z,21.60
2022-10-30T05:18:25.427Z,21.60
2022-10-30T05:20:53.517Z,21.60
2022-10-30T05:23:21.603Z,21.60
2022-10-30T05:25:49.650Z,21.60
2022-10-30T05:28:17.815Z,21.50
2022-10-30T05:30:45.911Z,21.50
2022-10-30T05:33:17.560Z,21.50
2022-10-30T05:35:45.682Z,21.60
2022-10-30T05:38:14.346Z,21.50
2022-10-30T05:40:46.994Z,21.50
2022-10-30T05:43:15.106Z,21.50
2022-10-30T05:45:44.030Z,21.50
2022-10-30T05:48:12.154Z,21.50
2022-10-30T05:50:41.642Z,21.50
2022-10-30T05:53:11.391Z,21.50
2022-10-30T05:55:39.582Z,21.40
2022-10-30T05:58:08.170Z,21.40
2022-10-30T06:00:37.467Z,21.40
2022-10-30T06:03:07.862Z,21.40
2022-10-30T06:05:37.852Z,21.50
2022-10-30T06:08:08.085Z,21.50
2022-10-30T06:10:36.858Z,21.50
2022-10-30T06:13:06.492Z,21.50
2022-10-30T06:15:34.772Z,21.50
2022-10-30T06:18:03.109Z,21.50
2022-10-30T06:20:32.173Z,21.50
2022-10-30T06:23:01.664Z,21.50
2022-10-30T06:25:37.774Z,21.50
2022-10-30T06:28:08.911Z,21.50
2022-10-30T06:30:36.975Z,21.50
2022-10-30T06:33:06.553Z,21.50
2022-10-30T06:35:34.648Z,21.50
2022-10-30T06:38:02.765Z,21.50
2022-10-30T06:40:32.531Z,21.60
2022-10-30T06:43:01.370Z,21.60
2022-10-30T06:45:29.719Z,21.60
2022-10-30T06:47:58.105Z,21.60
2022-10-30T06:50:26.772Z,21.60
2022-10-30T06:52:55.643Z,21.50
2022-10-30T06:55:23.830Z,21.40
2022-10-30T06:57:57.072Z,21.20
2022-10-30T07:00:25.654Z,21.00
2022-10-30T07:02:58.061Z,20.90
2022-10-30T07:05:26.561Z,20.80
2022-10-30T07:07:57.807Z,20.80
2022-10-30T07:10:25.987Z,20.70
2022-10-30T07:12:57.456Z,20.60
2022-10-30T07:15:26.533Z,20.60
2022-10-30T07:17:56.982Z,20.60
2022-10-30T07:20:25.824Z,20.60
2022-10-30T07:22:54.374Z,20.50
2022-10-30T07:25:23.307Z,20.50
2022-10-30T07:27:53.190Z,20.50
2022-10-30T07:33:00.357Z,20.50
2022-10-30T07:35:29.249Z,20.50
2022-10-30T07:37:57.570Z,20.50
2022-10-30T07:40:25.656Z,20.50
2022-10-30T07:42:57.997Z,20.60
2022-10-30T07:45:28.957Z,20.60
2022-10-30T07:47:57.794Z,20.70
2022-10-30T07:50:27.743Z,20.70
2022-10-30T07:52:56.155Z,20.80
2022-10-30T07:55:25.087Z,20.90
2022-10-30T07:57:54.079Z,21.00
2022-10-30T08:00:22.372Z,21.20
2022-10-30T08:02:53.259Z,21.30
2022-10-30T08:05:25.544Z,21.40
2022-10-30T08:07:58.238Z,21.70
2022-10-30T08:10:27.157Z,22.20
2022-10-30T08:12:58.716Z,22.60
2022-10-30T08:15:26.898Z,22.90
2022-10-30T08:17:56.785Z,23.20
2022-10-30T08:20:26.053Z,23.50
2022-10-30T08:22:56.710Z,23.70
2022-10-30T08:25:27.353Z,23.80
2022-10-30T08:27:58.412Z,24.00
2022-10-30T08:30:28.491Z,24.20
2022-10-30T08:33:00.546Z,24.30
2022-10-30T08:35:29.446Z,24.40
2022-10-30T08:37:58.185Z,24.50
2022-10-30T08:40:27.440Z,24.70
2022-10-30T08:42:56.843Z,24.80
2022-10-30T08:45:29.928Z,24.90
2022-10-30T08:48:03.404Z,25.00
2022-10-30T08:50:32.801Z,25.10
2022-10-30T08:53:03.162Z,25.30
2022-10-30T08:55:32.376Z,25.40
2022-10-30T08:58:01.349Z,25.60
2022-10-30T09:00:30.506Z,25.80
2022-10-30T09:03:00.552Z,26.00
2022-10-30T09:05:29.641Z,26.20
2022-10-30T09:08:01.269Z,26.50
2022-10-30T09:10:30.572Z,26.80
2022-10-30T09:13:00.293Z,27.00
2022-10-30T09:15:28.603Z,27.30
2022-10-30T09:17:58.830Z,27.50
2022-10-30T09:20:29.118Z,27.90
2022-10-30T09:22:57.684Z,28.30
2022-10-30T09:25:26.746Z,28.60
2022-10-30T09:27:55.803Z,28.90
2022-10-30T09:30:24.495Z,29.20
2022-10-30T09:32:57.015Z,29.40
2022-10-30T09:35:25.632Z,29.70
2022-10-30T09:37:55.484Z,29.90
2022-10-30T09:40:29.826Z,30.30
2022-10-30T09:43:02.819Z,30.50
2022-10-30T09:45:53.291Z,30.90
2022-10-30T09:48:40.767Z,31.20
2022-10-30T09:51:29.414Z,31.60
2022-10-30T09:54:12.031Z,32.00
2022-10-30T09:56:45.698Z,32.30
2022-10-30T09:59:27.256Z,32.50
2022-10-30T10:02:02.459Z,32.70
2022-10-30T10:04:39.462Z,32.90
2022-10-30T10:07:16.380Z,33.20
2022-10-30T10:09:47.403Z,33.60
2022-10-30T10:12:23.593Z,33.80
2022-10-30T10:14:52.656Z,34.10
2022-10-30T10:17:29.149Z,34.40
2022-10-30T10:20:00.502Z,34.80
2022-10-30T10:22:37.879Z,34.70
2022-10-30T10:25:14.193Z,34.90
2022-10-30T10:27:54.546Z,35.00
2022-10-30T10:30:24.370Z,35.10
2022-10-30T10:33:27.281Z,35.10
2022-10-30T10:36:03.754Z,35.40
2022-10-30T10:38:49.333Z,35.50
2022-10-30T10:41:28.651Z,35.60
2022-10-30T10:44:21.538Z,35.10
2022-10-30T10:47:06.733Z,34.90
2022-10-30T10:49:54.728Z,34.90
2022-10-30T10:52:26.036Z,35.00
2022-10-30T10:54:58.914Z,35.20
2022-10-30T10:57:32.773Z,35.30
2022-10-30T11:00:05.411Z,35.60
2022-10-30T11:02:40.409Z,35.80
2022-10-30T11:05:22.557Z,36.00
2022-10-30T11:07:51.938Z,35.90
2022-10-30T11:10:21.507Z,36.00
2022-10-30T11:12:51.037Z,36.30
2022-10-30T11:15:32.542Z,36.90
2022-10-30T11:18:03.331Z,37.10
2022-10-30T11:20:38.410Z,37.60
2022-10-30T11:23:39.912Z,38.20
2022-10-30T11:26:32.763Z,38.70
2022-10-30T11:29:06.870Z,39.20
2022-10-30T11:31:38.115Z,39.60
2022-10-30T11:34:24.647Z,39.70
2022-10-30T11:36:53.985Z,39.80
2022-10-30T11:39:23.544Z,40.10
2022-10-30T11:41:59.530Z,40.20
2022-10-30T11:44:34.277Z,40.20
2022-10-30T11:47:03.510Z,39.90
2022-10-30T11:49:40.198Z,40.00
2022-10-30T11:52:09.551Z,40.20
2022-10-30T11:54:41.780Z,40.40
2022-10-30T11:57:27.263Z,40.60
2022-10-30T12:00:03.810Z,40.80
2022-10-30T12:02:42.653Z,41.00
2022-10-30T12:05:32.373Z,41.10
2022-10-30T12:08:21.441Z,41.20
2022-10-30T12:10:59.925Z,41.20
2022-10-30T12:13:33.273Z,41.10
2022-10-30T12:16:14.187Z,40.80
2022-10-30T12:18:43.805Z,40.60
2022-10-30T12:21:18.548Z,40.60
2022-10-30T12:23:54.916Z,40.40
2022-10-30T12:26:25.207Z,40.20
2022-10-30T12:28:59.952Z,40.00
2022-10-30T12:31:38.436Z,39.90
2022-10-30T12:34:24.187Z,39.80
2022-10-30T12:36:57.885Z,39.60
2022-10-30T12:39:32.816Z,39.60
2022-10-30T12:42:04.681Z,39.50
2022-10-30T12:44:38.101Z,39.50
2022-10-30T12:47:14.328Z,39.70
2022-10-30T12:49:46.496Z,39.70
2022-10-30T12:52:20.493Z,39.60
2022-10-30T12:54:53.397Z,39.40
2022-10-30T12:57:26.772Z,39.30
2022-10-30T13:00:03.612Z,39.20
2022-10-30T13:02:46.887Z,39.20
2022-10-30T13:05:25.999Z,39.20
2022-10-30T13:08:03.095Z,39.30
2022-10-30T13:10:39.443Z,39.80
2022-10-30T13:13:14.316Z,40.10
2022-10-30T13:15:48.118Z,40.40
2022-10-30T13:18:20.180Z,40.40
2022-10-30T13:21:05.031Z,40.30
2022-10-30T13:23:41.851Z,40.00
2022-10-30T13:26:18.764Z,39.70
2022-10-30T13:28:54.696Z,39.50
2022-10-30T13:31:30.885Z,39.40
2022-10-30T13:34:06.941Z,39.10
2022-10-30T13:36:43.547Z,38.90
2022-10-30T13:39:23.307Z,38.60
2022-10-30T13:42:14.633Z,38.50
2022-10-30T13:44:53.240Z,38.40
2022-10-30T13:47:30.358Z,38.30
2022-10-30T13:50:16.392Z,38.40
2022-10-30T13:52:48.139Z,38.30
2022-10-30T13:55:21.718Z,38.40
2022-10-30T13:57:56.726Z,38.40
2022-10-30T14:00:31.205Z,38.50
2022-10-30T14:03:19.424Z,38.40
2022-10-30T14:05:54.821Z,38.20
2022-10-30T14:08:34.020Z,37.90
2022-10-30T14:11:03.747Z,37.60
2022-10-30T14:13:47.038Z,37.40
2022-10-30T14:16:38.234Z,37.20
2022-10-30T14:19:07.684Z,37.10
2022-10-30T14:21:52.924Z,36.90
2022-10-30T14:24:24.589Z,36.90
2022-10-30T14:26:56.417Z,36.70
2022-10-30T14:29:46.840Z,36.50
2022-10-30T14:32:51.680Z,36.20
2022-10-30T14:35:41.975Z,35.90
2022-10-30T14:38:38.297Z,35.70
2022-10-30T14:41:46.684Z,35.50
2022-10-30T14:44:44.864Z,35.30
2022-10-30T14:47:51.881Z,35.00
2022-10-30T14:50:48.268Z,34.90
2022-10-30T14:53:31.931Z,34.70
2022-10-30T14:56:07.851Z,34.50
2022-10-30T14:58:37.419Z,34.40
2022-10-30T15:01:35.567Z,34.20
2022-10-30T15:04:15.521Z,34.10
2022-10-30T15:06:55.835Z,34.00
2022-10-30T15:09:52.875Z,33.80
2022-10-30T15:12:38.364Z,33.70
2022-10-30T15:15:12.791Z,33.50
2022-10-30T15:17:43.604Z,33.30
2022-10-30T15:20:18.265Z,33.20
2022-10-30T15:22:49.018Z,33.10
2022-10-30T15:25:20.629Z,33.00
2022-10-30T15:27:53.248Z,32.80
2022-10-30T15:30:23.458Z,32.70
2022-10-30T15:32:51.779Z,32.50
2022-10-30T15:35:21.505Z,32.40
2022-10-30T15:38:00.088Z,32.30
2022-10-30T15:40:29.023Z,32.10
2022-10-30T15:43:01.657Z,32.00
2022-10-30T15:45:34.682Z,31.60
2022-10-30T15:48:07.938Z,31.30
2022-10-30T15:50:39.528Z,31.00
2022-10-30T15:53:08.274Z,30.60
2022-10-30T15:55:37.128Z,30.10
2022-10-30T15:58:06.879Z,29.70
2022-10-30T16:00:37.601Z,29.40
2022-10-30T16:03:07.590Z,29.20
2022-10-30T16:05:36.705Z,29.00
2022-10-30T16:08:13.509Z,28.80
2022-10-30T16:10:44.432Z,28.60
2022-10-30T16:13:17.871Z,28.40
2022-10-30T16:15:47.484Z,28.20
2022-10-30T16:18:20.369Z,28.10
2022-10-30T16:20:50.938Z,27.90
2022-10-30T16:23:21.401Z,27.80
2022-10-30T16:25:54.529Z,27.70
2022-10-30T16:28:32.633Z,27.60
2022-10-30T16:31:03.689Z,27.50
2022-10-30T16:33:34.501Z,27.30
2022-10-30T16:36:04.384Z,27.20
2022-10-30T16:38:36.869Z,27.10
2022-10-30T16:41:07.331Z,27.10
2022-10-30T16:43:37.217Z,27.00
2022-10-30T16:46:37.189Z,26.90
2022-10-30T16:49:08.201Z,26.80
2022-10-30T16:51:39.095Z,26.70
2022-10-30T16:54:08.189Z,26.60
2022-10-30T16:56:36.265Z,26.60
2022-10-30T16:59:14.874Z,26.50
2022-10-30T17:01:43.156Z,26.50
2022-10-30T17:04:16.791Z,26.50
2022-10-30T17:06:46.073Z,26.40
2022-10-30T17:09:22.939Z,26.30
2022-10-30T17:12:05.837Z,25.90
2022-10-30T17:14:45.202Z,25.80
2022-10-30T17:17:28.392Z,25.80
2022-10-30T17:19:59.483Z,25.70
2022-10-30T17:22:28.820Z,25.70
2022-10-30T17:24:58.339Z,25.60
2022-10-30T17:27:46.865Z,25.60
2022-10-30T17:30:38.232Z,25.60
2022-10-30T17:33:25.791Z,25.50
2022-10-30T17:38:28.943Z,25.20
2022-10-30T17:40:57.173Z,25.20
2022-10-30T17:43:28.887Z,25.20
2022-10-30T17:45:58.454Z,25.30
2022-10-30T17:48:29.662Z,25.30
2022-10-30T17:50:57.727Z,25.30
2022-10-30T17:53:27.849Z,25.30
2022-10-30T17:56:01.730Z,25.30
2022-10-30T17:58:30.941Z,25.30
2022-10-30T18:01:01.100Z,25.30
2022-10-30T18:03:29.671Z,25.30
2022-10-30T18:06:00.713Z,25.30
2022-10-30T18:08:29.254Z,25.30
2022-10-30T18:10:57.779Z,25.30
2022-10-30T18:13:26.337Z,25.30
2022-10-30T18:15:58.721Z,25.30
2022-10-30T18:18:28.668Z,25.30
2022-10-30T18:20:56.891Z,25.30
2022-10-30T18:26:16.115Z,25.30
2022-10-30T18:28:44.750Z,25.30
2022-10-30T18:31:14.429Z,25.20
2022-10-30T18:33:45.210Z,25.20
2022-10-30T18:36:15.342Z,25.20
2022-10-30T18:38:43.844Z,25.20
2022-10-30T18:41:16.253Z,25.20
2022-10-30T18:43:46.888Z,25.20
2022-10-30T18:46:16.791Z,25.20
2022-10-30T18:48:46.538Z,25.10
2022-10-30T18:51:16.732Z,25.10
2022-10-30T18:53:51.408Z,25.10
2022-10-30T18:56:20.510Z,25.10
2022-10-30T18:58:48.703Z,25.00
2022-10-30T19:01:18.117Z,24.90
2022-10-30T19:03:48.286Z,24.90
2022-10-30T19:06:18.305Z,24.90
2022-10-30T19:08:46.479Z,24.90
2022-10-30T19:11:18.774Z,24.90
2022-10-30T19:13:50.372Z,24.80
2022-10-30T19:16:20.385Z,24.90
2022-10-30T19:18:49.967Z,24.80
2022-10-30T19:21:19.585Z,24.80
2022-10-30T19:23:48.048Z,24.80
2022-10-30T19:26:17.731Z,24.80
2022-10-30T19:28:46.549Z,24.80
2022-10-30T19:31:17.027Z,24.70
2022-10-30T19:33:45.703Z,24.70
2022-10-30T19:36:30.151Z,24.70
2022-10-30T19:39:00.809Z,24.70
2022-10-30T19:41:31.463Z,24.70
2022-10-30T19:43:59.625Z,24.70
2022-10-30T19:46:27.741Z,24.60
2022-10-30T19:48:57.624Z,24.60
2022-10-30T19:51:27.922Z,24.60
2022-10-30T19:53:56.437Z,24.60
2022-10-30T19:56:24.729Z,24.60
2022-10-30T19:58:55.952Z,24.60
2022-10-30T20:01:24.324Z,24.50
2022-10-30T20:03:52.525Z,24.50
2022-10-30T20:06:21.423Z,24.50
2022-10-30T20:08:51.256Z,24.50
2022-10-30T20:11:19.227Z,24.50
2022-10-30T20:13:50.681Z,24.50
2022-10-30T20:16:22.085Z,24.40
2022-10-30T20:18:50.857Z,24.40
2022-10-30T20:21:20.510Z,24.40
2022-10-30T20:23:51.041Z,24.40
2022-10-30T20:26:25.766Z,24.40
2022-10-30T20:28:54.544Z,24.30
2022-10-30T20:31:23.317Z,24.30
2022-10-30T20:33:51.494Z,24.30
2022-10-30T20:36:25.676Z,24.30
2022-10-30T20:38:55.149Z,24.20
2022-10-30T20:41:25.272Z,24.30
2022-10-30T20:43:53.718Z,24.20
2022-10-30T20:46:22.780Z,24.20
2022-10-30T20:48:51.003Z,24.20
2022-10-30T20:51:19.086Z,24.20
2022-10-30T20:53:47.394Z,24.20
2022-10-30T20:56:17.066Z,24.10
2022-10-30T20:58:45.141Z,24.10
2022-10-30T21:01:14.133Z,24.10
2022-10-30T21:03:42.303Z,24.10
2022-10-30T21:06:10.399Z,24.10
2022-10-30T21:08:38.887Z,24.00
2022-10-30T21:11:08.926Z,24.00
2022-10-30T21:13:38.763Z,24.00
2022-10-30T21:16:08.225Z,24.00
2022-10-30T21:18:36.461Z,24.00
2022-10-30T21:21:05.813Z,24.10
2022-10-30T21:23:34.000Z,24.30
2022-10-30T21:26:02.627Z,24.50
2022-10-30T21:28:30.709Z,24.50
2022-10-30T21:31:03.364Z,24.60
2022-10-30T21:33:32.333Z,24.60
2022-10-30T21:36:09.158Z,24.60
2022-10-30T21:38:41.954Z,24.60
2022-10-30T21:41:10.667Z,24.60
2022-10-30T21:43:38.722Z,24.70
2022-10-30T21:46:09.990Z,24.70
2022-10-30T21:48:38.631Z,24.70
2022-10-30T21:51:08.658Z,24.60
2022-10-30T21:53:36.791Z,24.60
2022-10-30T21:56:06.778Z,24.60
2022-10-30T21:58:35.371Z,24.60
2022-10-30T22:01:04.266Z,24.60
2022-10-30T22:03:34.473Z,24.60
2022-10-30T22:06:07.442Z,24.60
2022-10-30T22:08:36.058Z,24.60
2022-10-30T22:11:05.018Z,24.60
2022-10-30T22:13:33.297Z,24.60
2022-10-30T22:16:01.444Z,24.60
2022-10-30T22:18:29.755Z,24.50
2022-10-30T22:21:04.126Z,24.50
2022-10-30T22:23:32.212Z,24.50
2022-10-30T22:26:02.469Z,24.50
2022-10-30T22:28:32.081Z,24.50
2022-10-30T22:31:03.787Z,24.40
2022-10-30T22:33:33.392Z,24.40
2022-10-30T22:36:08.062Z,24.40
2022-10-30T22:38:36.616Z,24.40
2022-10-30T22:41:11.698Z,24.40
2022-10-30T22:43:40.369Z,24.40
2022-10-30T22:46:08.804Z,24.30
2022-10-30T22:48:37.286Z,24.30
2022-10-30T22:51:13.472Z,24.30
2022-10-30T22:53:46.001Z,24.30
2022-10-30T22:56:17.166Z,24.20
2022-10-30T22:58:46.233Z,24.20
2022-10-30T23:01:18.769Z,24.20
2022-10-30T23:03:47.266Z,24.20
2022-10-30T23:06:17.271Z,24.20
2022-10-30T23:08:45.511Z,24.20
2022-10-30T23:11:13.685Z,24.20
2022-10-30T23:13:41.792Z,24.10
2022-10-30T23:16:13.543Z,24.10
2022-10-30T23:18:42.219Z,24.10
2022-10-30T23:21:13.697Z,24.10
2022-10-30T23:23:44.159Z,24.10
2022-10-30T23:26:13.961Z,24.00
2022-10-30T23:28:41.828Z,24.00
2022-10-30T23:31:10.440Z,24.00
2022-10-30T23:33:38.635Z,24.00
2022-10-30T23:36:07.802Z,24.00
2022-10-30T23:38:35.878Z,24.00
2022-10-30T23:41:05.536Z,24.00
2022-10-30T23:43:33.699Z,24.00
2022-10-30T23:46:01.774Z,23.90
2022-10-30T23:48:29.852Z,23.90
2022-10-30T23:50:57.955Z,23.90
2022-10-30T23:53:26.053Z,23.90
2022-10-30T23:55:54.906Z,23.90
2022-10-30T23:58:24.415Z,23.90
